createdAt,value
2022-09-27T00:00:41.890Z,76.92
2022-09-27T00:03:12.087Z,76.82
2022-09-27T00:05:39.131Z,77.36
2022-09-27T00:08:05.661Z,77.08
2022-09-27T00:10:32.555Z,77.35
2022-09-27T00:12:59.239Z,77.25
2022-09-27T00:15:25.661Z,77.53
2022-09-27T00:17:52.256Z,77.33
2022-09-27T00:20:20.561Z,77.24
2022-09-27T00:22:48.356Z,77.37
2022-09-27T00:25:15.403Z,77.72
2022-09-27T00:27:42.217Z,77.52
2022-09-27T00:30:10.255Z,77.69
2022-09-27T00:32:36.884Z,77.61
2022-09-27T00:35:03.784Z,78.10
2022-09-27T00:37:30.246Z,77.75
2022-09-27T00:39:56.709Z,77.95
2022-09-27T00:42:26.401Z,77.87
2022-09-27T00:45:05.643Z,78.49
2022-09-27T00:47:41.202Z,78.18
2022-09-27T00:50:16.014Z,78.87
2022-09-27T00:53:17.635Z,78.88
2022-09-27T00:55:51.728Z,78.50
2022-09-27T00:58:20.803Z,78.99
2022-09-27T01:00:52.323Z,78.79
2022-09-27T01:03:52.578Z,78.52
2022-09-27T01:06:21.211Z,78.86
2022-09-27T01:08:48.501Z,79.00
2022-09-27T01:11:39.853Z,79.20
2022-09-27T01:14:29.018Z,78.89
2022-09-27T01:17:30.033Z,78.96
2022-09-27T01:20:18.170Z,79.30
2022-09-27T01:23:09.743Z,79.19
2022-09-27T01:26:08.999Z,78.72
2022-09-27T01:28:44.115Z,78.56
2022-09-27T01:31:30.578Z,79.62
2022-09-27T01:34:23.536Z,79.26
2022-09-27T01:36:57.140Z,79.66
2022-09-27T01:39:32.824Z,79.50
2022-09-27T01:42:19.925Z,79.78
2022-09-27T01:45:01.089Z,79.79
2022-09-27T01:47:51.732Z,80.37
2022-09-27T01:50:25.434Z,80.35
2022-09-27T01:53:14.886Z,80.23
2022-09-27T01:55:42.469Z,80.21
2022-09-27T01:58:18.068Z,80.02
2022-09-27T02:00:49.271Z,80.54
2022-09-27T02:03:24.279Z,80.17
2022-09-27T02:05:55.760Z,79.92
2022-09-27T02:08:59.648Z,80.52
2022-09-27T02:11:27.410Z,79.75
2022-09-27T02:14:02.155Z,80.37
2022-09-27T02:16:51.833Z,81.08
2022-09-27T02:19:43.738Z,80.44
2022-09-27T02:22:39.155Z,80.42
2022-09-27T02:25:48.878Z,80.84
2022-09-27T02:28:54.531Z,81.05
2022-09-27T02:31:33.854Z,81.31
2022-09-27T02:34:16.301Z,81.67
2022-09-27T02:36:52.981Z,81.63
2022-09-27T02:39:38.921Z,81.42
2022-09-27T02:42:14.928Z,81.38
2022-09-27T02:44:48.735Z,82.06
2022-09-27T02:47:49.280Z,81.46
2022-09-27T02:50:54.469Z,81.87
2022-09-27T02:54:06.208Z,81.89
2022-09-27T02:57:02.850Z,81.36
2022-09-27T03:00:00.936Z,82.14
2022-09-27T03:02:57.517Z,81.58
2022-09-27T03:05:36.941Z,82.56
2022-09-27T03:08:05.697Z,82.73
2022-09-27T03:11:02.670Z,82.59
2022-09-27T03:13:50.166Z,82.47
2022-09-27T03:16:33.763Z,83.06
2022-09-27T03:19:08.941Z,82.50
2022-09-27T03:21:44.771Z,82.58
2022-09-27T03:24:15.399Z,82.82
2022-09-27T03:26:47.806Z,83.04
2022-09-27T03:29:23.092Z,83.07
2022-09-27T03:31:50.818Z,82.66
2022-09-27T03:34:18.623Z,82.90
2022-09-27T03:36:51.473Z,82.85
2022-09-27T03:39:34.494Z,82.80
2022-09-27T03:42:09.505Z,82.76
2022-09-27T03:44:51.738Z,82.78
2022-09-27T03:47:32.326Z,82.86
2022-09-27T03:53:05.204Z,83.19
2022-09-27T03:55:32.950Z,82.79
2022-09-27T03:58:15.686Z,83.30
2022-09-27T04:00:51.709Z,83.26
2022-09-27T04:09:05.023Z,83.28
2022-09-27T04:11:57.874Z,83.20
2022-09-27T04:14:32.613Z,83.24
2022-09-27T04:17:07.531Z,83.08
2022-09-27T04:19:34.122Z,83.26
2022-09-27T04:22:01.706Z,83.09
2022-09-27T04:24:28.278Z,83.32
2022-09-27T04:26:54.856Z,83.48
2022-09-27T04:29:22.425Z,83.39
2022-09-27T04:31:49.113Z,83.10
2022-09-27T04:34:16.297Z,83.26
2022-09-27T04:36:42.967Z,83.42
2022-09-27T04:39:10.539Z,83.40
2022-09-27T04:41:37.121Z,83.63
2022-09-27T04:44:04.009Z,83.59
2022-09-27T04:46:34.188Z,83.57
2022-09-27T04:49:01.611Z,83.39
2022-09-27T04:51:28.527Z,83.51
2022-09-27T04:53:57.203Z,83.60
2022-09-27T04:56:23.763Z,83.30
2022-09-27T04:58:50.437Z,83.77
2022-09-27T05:01:17.205Z,83.56
2022-09-27T05:03:44.052Z,83.43
2022-09-27T05:06:10.670Z,83.50
2022-09-27T05:08:37.288Z,82.98
2022-09-27T05:11:03.997Z,83.09
2022-09-27T05:13:30.434Z,83.52
2022-09-27T05:16:03.195Z,83.93
2022-09-27T05:18:29.977Z,83.84
2022-09-27T05:20:58.940Z,83.16
2022-09-27T05:23:26.464Z,83.34
2022-09-27T05:25:56.055Z,83.53
2022-09-27T05:28:24.240Z,83.44
2022-09-27T05:30:50.966Z,83.82
2022-09-27T05:33:19.122Z,84.05
2022-09-27T05:35:55.851Z,83.75
2022-09-27T05:38:23.373Z,84.48
2022-09-27T05:40:51.107Z,84.21
2022-09-27T05:43:18.284Z,84.32
2022-09-27T05:45:45.197Z,83.97
2022-09-27T05:48:14.138Z,84.10
2022-09-27T05:50:41.179Z,84.24
2022-09-27T05:53:07.719Z,84.25
2022-09-27T05:55:34.313Z,84.16
2022-09-27T05:58:04.485Z,84.10
2022-09-27T06:00:31.594Z,83.82
2022-09-27T06:03:04.192Z,83.62
2022-09-27T06:05:35.805Z,83.80
2022-09-27T06:08:06.200Z,84.15
2022-09-27T06:10:32.932Z,83.99
2022-09-27T06:13:11.145Z,84.45
2022-09-27T06:15:39.312Z,84.33
2022-09-27T06:18:18.630Z,83.91
2022-09-27T06:20:45.568Z,84.27
2022-09-27T06:23:20.462Z,84.33
2022-09-27T06:25:47.369Z,83.84
2022-09-27T06:28:14.499Z,83.98
2022-09-27T06:30:46.791Z,84.17
2022-09-27T06:33:19.607Z,84.36
2022-09-27T06:35:48.837Z,83.78
2022-09-27T06:38:17.385Z,83.93
2022-09-27T06:40:45.674Z,84.17
2022-09-27T06:43:14.656Z,84.33
2022-09-27T06:48:26.662Z,82.98
2022-09-27T06:50:58.597Z,83.98
2022-09-27T06:53:27.211Z,83.73
2022-09-27T06:56:01.797Z,83.70
2022-09-27T06:58:48.654Z,83.75
2022-09-27T07:01:25.436Z,83.45
2022-09-27T07:03:56.978Z,84.16
2022-09-27T07:09:24.755Z,83.67
2022-09-27T07:11:56.180Z,83.97
2022-09-27T07:14:23.779Z,84.12
2022-09-27T07:16:56.216Z,83.73
2022-09-27T07:19:25.230Z,83.89
2022-09-27T07:21:53.523Z,83.88
2022-09-27T07:24:32.248Z,83.77
2022-09-27T07:27:00.396Z,83.65
2022-09-27T07:29:27.986Z,83.46
2022-09-27T07:31:59.028Z,83.74
2022-09-27T07:34:29.658Z,83.48
2022-09-27T07:37:05.864Z,83.75
2022-09-27T07:39:39.525Z,83.11
2022-09-27T07:42:10.727Z,83.72
2022-09-27T07:44:37.598Z,83.47
2022-09-27T07:47:08.050Z,83.88
2022-09-27T07:49:34.622Z,83.52
2022-09-27T07:54:51.831Z,83.76
2022-09-27T07:57:22.417Z,83.95
2022-09-27T07:59:49.077Z,83.19
2022-09-27T08:02:17.382Z,82.87
2022-09-27T08:04:44.142Z,83.03
2022-09-27T08:07:14.334Z,83.29
2022-09-27T08:09:41.405Z,83.30
2022-09-27T08:12:08.425Z,82.60
2022-09-27T08:14:39.769Z,82.46
2022-09-27T08:17:13.183Z,82.15
2022-09-27T08:19:40.668Z,81.70
2022-09-27T08:22:10.293Z,82.08
2022-09-27T08:24:36.875Z,82.03
2022-09-27T08:27:05.185Z,82.11
2022-09-27T08:29:35.410Z,81.81
2022-09-27T08:32:02.213Z,82.09
2022-09-27T08:34:58.058Z,81.35
2022-09-27T08:37:31.260Z,81.27
2022-09-27T08:40:04.975Z,80.96
2022-09-27T08:43:13.173Z,81.58
2022-09-27T08:46:17.998Z,80.58
2022-09-27T08:48:53.364Z,80.40
2022-09-27T08:51:30.636Z,80.52
2022-09-27T08:54:20.778Z,80.93
2022-09-27T08:57:03.321Z,80.07
2022-09-27T08:59:39.775Z,80.97
2022-09-27T09:06:01.168Z,80.38
2022-09-27T09:08:51.224Z,80.23
2022-09-27T09:12:10.553Z,80.88
2022-09-27T09:15:14.629Z,80.15
2022-09-27T09:18:25.425Z,79.92
2022-09-27T09:21:15.686Z,79.63
2022-09-27T09:27:48.172Z,80.27
2022-09-27T09:30:32.347Z,80.57
2022-09-27T09:33:42.475Z,80.72
2022-09-27T09:36:23.690Z,80.58
2022-09-27T09:39:08.050Z,79.95
2022-09-27T09:42:13.188Z,79.23
2022-09-27T09:45:23.809Z,78.65
2022-09-27T09:48:46.513Z,78.83
2022-09-27T09:51:49.093Z,78.43
2022-09-27T09:54:38.465Z,78.09
2022-09-27T09:57:24.848Z,78.42
2022-09-27T10:00:08.309Z,77.88
2022-09-27T10:06:16.987Z,78.44
2022-09-27T10:08:52.844Z,77.61
2022-09-27T10:11:27.010Z,78.61
2022-09-27T10:14:02.566Z,78.16
2022-09-27T10:16:37.006Z,77.72
2022-09-27T10:19:12.702Z,77.16
2022-09-27T10:21:51.568Z,76.00
2022-09-27T10:24:23.031Z,76.17
2022-09-27T10:27:06.822Z,76.39
2022-09-27T10:30:01.134Z,76.10
2022-09-27T10:36:34.824Z,76.00
2022-09-27T10:39:38.592Z,76.57
2022-09-27T10:42:50.464Z,76.74
2022-09-27T10:45:51.269Z,76.46
2022-09-27T10:51:47.391Z,76.29
2022-09-27T10:55:18.111Z,76.18
2022-09-27T10:57:58.587Z,76.46
2022-09-27T11:06:15.656Z,76.21
2022-09-27T11:06:52.791Z,76.26
2022-09-27T11:09:51.909Z,76.75
2022-09-27T11:12:43.030Z,76.37
2022-09-27T11:15:28.716Z,76.44
2022-09-27T11:18:22.639Z,76.18
2022-09-27T11:21:35.511Z,76.45
2022-09-27T11:24:16.434Z,75.63
2022-09-27T11:30:20.143Z,75.97
2022-09-27T11:32:58.953Z,75.34
2022-09-27T11:36:01.356Z,74.90
2022-09-27T11:39:03.903Z,75.47
2022-09-27T11:41:52.116Z,75.40
2022-09-27T11:44:32.594Z,75.06
2022-09-27T11:47:54.948Z,74.28
2022-09-27T11:53:44.119Z,74.10
2022-09-27T11:56:28.148Z,74.64
2022-09-27T11:59:06.718Z,74.48
2022-09-27T12:02:07.190Z,74.07
2022-09-27T12:04:53.395Z,74.58
2022-09-27T12:07:43.478Z,75.71
2022-09-27T12:10:14.330Z,76.28
2022-09-27T12:12:45.382Z,77.08
2022-09-27T12:15:21.067Z,77.65
2022-09-27T12:17:52.454Z,78.18
2022-09-27T12:20:23.763Z,77.90
2022-09-27T12:23:39.649Z,77.73
2022-09-27T12:26:52.345Z,77.91
2022-09-27T12:32:24.285Z,78.48
2022-09-27T12:35:08.021Z,78.39
2022-09-27T12:38:14.414Z,78.19
2022-09-27T12:41:52.005Z,78.17
2022-09-27T12:44:09.040Z,78.31
2022-09-27T12:47:17.108Z,78.90
2022-09-27T12:49:58.841Z,78.17
2022-09-27T12:52:53.218Z,78.47
2022-09-27T12:56:06.722Z,78.93
2022-09-27T12:59:04.080Z,78.50
2022-09-27T13:05:04.641Z,78.57
2022-09-27T13:07:38.647Z,78.40
2022-09-27T13:10:37.958Z,78.56
2022-09-27T13:13:11.454Z,78.77
2022-09-27T13:15:47.955Z,78.43
2022-09-27T13:19:23.890Z,78.77
2022-09-27T13:22:00.868Z,78.64
2022-09-27T13:24:47.990Z,78.39
2022-09-27T13:27:37.238Z,79.47
2022-09-27T13:30:14.138Z,78.93
2022-09-27T13:32:54.710Z,79.21
2022-09-27T13:35:25.714Z,79.39
2022-09-27T13:38:24.547Z,79.70
2022-09-27T13:41:36.070Z,80.53
2022-09-27T13:44:21.575Z,80.21
2022-09-27T13:47:12.935Z,80.34
2022-09-27T13:49:45.183Z,80.47
2022-09-27T13:52:39.369Z,80.59
2022-09-27T13:55:47.193Z,80.09
2022-09-27T13:58:44.656Z,81.05
2022-09-27T14:01:19.053Z,80.70
2022-09-27T14:03:57.748Z,80.97
2022-09-27T14:06:48.119Z,80.85
2022-09-27T14:09:35.730Z,80.98
2022-09-27T14:15:03.473Z,81.42
2022-09-27T14:17:33.736Z,81.24
2022-09-27T14:20:08.260Z,81.44
2022-09-27T14:22:44.196Z,81.52
2022-09-27T14:25:20.798Z,81.63
2022-09-27T14:31:27.844Z,82.20
2022-09-27T14:34:47.888Z,82.06
2022-09-27T14:37:48.737Z,82.26
2022-09-27T14:40:26.686Z,82.13
2022-09-27T14:43:00.334Z,82.31
2022-09-27T14:45:43.440Z,82.39
2022-09-27T14:51:36.246Z,82.63
2022-09-27T14:54:52.775Z,82.02
2022-09-27T14:57:24.071Z,81.68
2022-09-27T14:59:50.633Z,81.51
2022-09-27T15:02:23.545Z,81.50
2022-09-27T15:04:51.725Z,81.42
2022-09-27T15:07:22.549Z,81.01
2022-09-27T15:09:51.029Z,80.31
2022-09-27T15:12:29.040Z,79.99
2022-09-27T15:14:58.180Z,80.68
2022-09-27T15:17:25.360Z,80.59
2022-09-27T15:20:00.334Z,80.04
2022-09-27T15:22:32.914Z,80.20
2022-09-27T15:25:19.604Z,81.04
2022-09-27T15:27:54.966Z,81.80
2022-09-27T15:30:38.437Z,81.00
2022-09-27T15:33:07.616Z,81.56
2022-09-27T15:35:36.594Z,81.31
2022-09-27T15:38:26.751Z,81.98
2022-09-27T15:40:56.182Z,81.69
2022-09-27T15:43:35.919Z,82.36
2022-09-27T15:46:05.375Z,81.51
2022-09-27T15:48:35.508Z,81.80
2022-09-27T15:51:03.041Z,81.94
2022-09-27T15:53:35.598Z,81.69
2022-09-27T15:56:06.674Z,81.87
2022-09-27T15:58:35.215Z,81.89
2022-09-27T16:01:05.744Z,82.08
2022-09-27T16:03:32.941Z,82.10
2022-09-27T16:06:02.290Z,82.19
2022-09-27T16:08:29.210Z,82.00
2022-09-27T16:10:58.466Z,82.16
2022-09-27T16:13:31.665Z,82.09
2022-09-27T16:15:59.828Z,81.56
2022-09-27T16:18:30.252Z,82.31
2022-09-27T16:20:58.720Z,81.67
2022-09-27T16:23:25.631Z,82.53
2022-09-27T16:25:55.336Z,81.93
2022-09-27T16:28:22.119Z,82.13
2022-09-27T16:30:48.650Z,82.13
2022-09-27T16:33:15.566Z,81.92
2022-09-27T16:35:42.312Z,81.84
2022-09-27T16:38:09.261Z,81.61
2022-09-27T16:40:37.033Z,82.39
2022-09-27T16:43:07.127Z,82.02
2022-09-27T16:45:36.504Z,81.66
2022-09-27T16:48:05.964Z,82.24
2022-09-27T16:50:56.156Z,81.56
2022-09-27T16:53:31.197Z,81.49
2022-09-27T16:56:06.944Z,81.70
2022-09-27T17:01:41.225Z,81.54
2022-09-27T17:04:08.886Z,81.39
2022-09-27T17:06:43.477Z,81.42
2022-09-27T17:10:01.620Z,81.89
2022-09-27T17:13:15.441Z,82.02
2022-09-27T17:15:44.218Z,81.69
2022-09-27T17:18:23.993Z,81.25
2022-09-27T17:20:59.074Z,80.90
2022-09-27T17:23:30.488Z,81.17
2022-09-27T17:26:05.966Z,81.11
2022-09-27T17:28:38.706Z,80.62
2022-09-27T17:31:28.123Z,80.63
2022-09-27T17:34:05.278Z,80.52
2022-09-27T17:36:36.009Z,80.93
2022-09-27T17:39:04.184Z,80.90
2022-09-27T17:44:32.757Z,80.81
2022-09-27T17:47:19.037Z,80.47
2022-09-27T17:50:25.072Z,80.85
2022-09-27T17:53:04.800Z,80.62
2022-09-27T17:55:57.404Z,80.67
2022-09-27T17:58:41.803Z,80.39
2022-09-27T18:01:17.147Z,80.67
2022-09-27T18:03:45.116Z,80.29
2022-09-27T18:06:14.722Z,80.30
2022-09-27T18:08:49.165Z,80.62
2022-09-27T18:11:24.284Z,80.32
2022-09-27T18:13:54.793Z,80.35
2022-09-27T18:16:33.262Z,80.65
2022-09-27T18:19:02.124Z,80.36
2022-09-27T18:21:47.587Z,80.16
2022-09-27T18:24:20.758Z,80.11
2022-09-27T18:26:50.099Z,79.86
2022-09-27T18:29:23.258Z,80.06
2022-09-27T18:31:58.703Z,80.11
2022-09-27T18:34:32.745Z,80.21
2022-09-27T18:37:03.275Z,80.20
2022-09-27T18:39:31.659Z,80.53
2022-09-27T18:41:59.937Z,80.37
2022-09-27T18:44:27.671Z,80.10
2022-09-27T18:46:59.588Z,80.38
2022-09-27T18:49:31.813Z,80.84
2022-09-27T18:52:00.561Z,79.79
2022-09-27T18:54:27.274Z,80.19
2022-09-27T18:56:53.791Z,80.29
2022-09-27T18:59:23.946Z,80.48
2022-09-27T19:01:50.719Z,80.30
2022-09-27T19:04:24.897Z,80.29
2022-09-27T19:06:52.993Z,80.40
2022-09-27T19:09:19.628Z,80.82
2022-09-27T19:11:46.379Z,80.27
2022-09-27T19:14:18.711Z,80.56
2022-09-27T19:16:47.453Z,80.54
2022-09-27T19:19:15.541Z,80.68
2022-09-27T19:21:42.395Z,80.38
2022-09-27T19:24:08.874Z,80.40
2022-09-27T19:26:35.413Z,80.36
2022-09-27T19:29:02.036Z,80.78
2022-09-27T19:31:29.739Z,81.15
2022-09-27T19:34:00.210Z,80.49
2022-09-27T19:36:27.604Z,80.86
2022-09-27T19:38:54.590Z,80.36
2022-09-27T19:41:21.087Z,80.99
2022-09-27T19:43:52.521Z,81.23
2022-09-27T19:46:20.908Z,81.05
2022-09-27T19:48:48.452Z,80.87
2022-09-27T19:51:27.679Z,80.29
2022-09-27T19:53:55.868Z,80.20
2022-09-27T19:59:15.387Z,80.81
2022-09-27T20:01:52.052Z,80.78
2022-09-27T20:04:27.918Z,80.79
2022-09-27T20:06:56.459Z,80.56
2022-09-27T20:09:36.624Z,81.18
2022-09-27T20:12:13.399Z,80.63
2022-09-27T20:14:45.605Z,80.74
2022-09-27T20:17:15.779Z,81.12
2022-09-27T20:19:43.646Z,81.17
2022-09-27T20:22:14.185Z,80.78
2022-09-27T20:24:45.737Z,80.57
2022-09-27T20:27:16.371Z,80.79
2022-09-27T20:29:51.613Z,81.13
2022-09-27T20:32:27.765Z,80.60
2022-09-27T20:34:56.382Z,80.91
2022-09-27T20:37:25.355Z,80.92
2022-09-27T20:40:05.309Z,81.23
2022-09-27T20:42:35.016Z,81.21
2022-09-27T20:45:34.531Z,80.85
2022-09-27T20:48:12.154Z,81.09
2022-09-27T20:50:38.669Z,81.26
2022-09-27T20:53:05.344Z,80.66
2022-09-27T20:55:33.413Z,81.43
2022-09-27T20:57:59.961Z,81.10
2022-09-27T21:03:21.570Z,80.84
2022-09-27T21:05:58.767Z,81.08
2022-09-27T21:08:28.407Z,81.12
2022-09-27T21:10:55.050Z,80.81
2022-09-27T21:13:22.942Z,81.29
2022-09-27T21:15:49.615Z,81.11
2022-09-27T21:18:16.503Z,81.35
2022-09-27T21:20:42.950Z,81.14
2022-09-27T21:23:09.786Z,80.96
2022-09-27T21:25:36.223Z,81.25
2022-09-27T21:28:04.305Z,81.13
2022-09-27T21:30:31.369Z,81.24
2022-09-27T21:32:58.087Z,81.10
2022-09-27T21:35:24.813Z,80.91
2022-09-27T21:37:51.434Z,81.96
2022-09-27T21:40:18.388Z,81.61
2022-09-27T21:42:45.013Z,81.48
2022-09-27T21:45:11.720Z,81.13
2022-09-27T21:47:38.319Z,81.70
2022-09-27T21:50:05.237Z,81.19
2022-09-27T21:52:31.765Z,81.30
2022-09-27T21:54:58.246Z,80.94
2022-09-27T21:57:24.712Z,80.83
2022-09-27T21:59:51.229Z,81.04
2022-09-27T22:02:19.365Z,81.23
2022-09-27T22:04:45.803Z,81.79
2022-09-27T22:07:12.175Z,81.28
2022-09-27T22:09:38.792Z,81.47
2022-09-27T22:12:06.220Z,81.23
2022-09-27T22:14:34.391Z,81.37
2022-09-27T22:17:00.839Z,81.29
2022-09-27T22:19:27.184Z,81.55
2022-09-27T22:21:53.530Z,81.48
2022-09-27T22:24:19.990Z,81.89
2022-09-27T22:26:49.625Z,81.86
2022-09-27T22:29:16.443Z,81.89
2022-09-27T22:31:43.187Z,82.32
2022-09-27T22:34:17.185Z,82.25
2022-09-27T22:36:44.058Z,82.02
2022-09-27T22:39:10.673Z,82.18
2022-09-27T22:41:37.504Z,81.96
2022-09-27T22:44:04.193Z,82.53
2022-09-27T22:46:31.218Z,82.57
2022-09-27T22:48:57.804Z,82.11
2022-09-27T22:51:24.163Z,82.46
2022-09-27T22:53:50.572Z,82.37
2022-09-27T22:56:19.415Z,82.11
2022-09-27T22:58:47.548Z,83.07
2022-09-27T23:01:16.502Z,82.83
2022-09-27T23:03:43.762Z,83.05
